Time;durP1;ratioP1;P1;durP2;ratioP2;P2;SDS_P1;SDS_P2;PMS_P1;PMS_P2;Temp;Humidity;BMP_temperature;BMP_pressure;BME280_temperature;BME280_humidity;BME280_pressure;Samples;Min_cycle;Max_cycle;Signal;HPM_P1;HPM_P2
2022/07/30 00:00:57;;;;;;;4.45;1.77;;;;;;;17.91;64.17;99916.66;4907681;29;20058;-52
2022/07/30 00:03:23;;;;;;;3.55;2.00;;;;;;;17.92;64.31;99913.13;4907703;29;20225;-52
2022/07/30 00:05:48;;;;;;;6.25;2.45;;;;;;;17.84;64.60;99920.47;4907924;29;20317;-52
2022/07/30 00:08:14;;;;;;;4.80;2.20;;;;;;;17.86;65.64;99913.41;4907384;29;20063;-52
2022/07/30 00:10:40;;;;;;;6.32;2.88;;;;;;;17.88;64.94;99911.53;4906623;29;20073;-52
2022/07/30 00:13:07;;;;;;;5.43;3.05;;;;;;;17.87;65.04;99917.69;4907576;29;20036;-52
2022/07/30 00:15:33;;;;;;;6.97;3.20;;;;;;;17.77;64.94;99902.44;4907453;29;20024;-51
2022/07/30 00:17:58;;;;;;;7.53;3.70;;;;;;;17.75;65.29;99912.13;4907493;29;20099;-51
2022/07/30 00:20:24;;;;;;;8.23;4.38;;;;;;;17.70;65.11;99914.13;4907090;29;20025;-52
2022/07/30 00:22:49;;;;;;;8.93;3.90;;;;;;;17.78;65.21;99913.75;4907036;29;20035;-52
2022/07/30 00:25:17;;;;;;;9.10;4.00;;;;;;;17.70;65.29;99906.25;4907494;29;20032;-52
2022/07/30 00:27:43;;;;;;;7.70;3.95;;;;;;;17.70;65.63;99911.50;4907252;29;20134;-52
2022/07/30 00:30:09;;;;;;;8.43;3.90;;;;;;;17.68;65.64;99913.34;4906951;29;20095;-52
2022/07/30 00:32:34;;;;;;;9.82;4.07;;;;;;;17.68;66.16;99913.34;4907032;29;20092;-52
2022/07/30 00:35:00;;;;;;;7.10;3.47;;;;;;;17.67;65.65;99906.41;4907137;29;20032;-52
2022/07/30 00:37:26;;;;;;;8.07;4.00;;;;;;;17.67;66.25;99914.28;4907246;29;20248;-52
2022/07/30 00:39:51;;;;;;;7.93;3.47;;;;;;;17.63;66.11;99915.34;4907104;29;20029;-53
2022/07/30 00:42:24;;;;;;;8.73;3.47;;;;;;;17.57;66.17;99900.75;4906952;29;20059;-52
2022/07/30 00:44:51;;;;;;;8.43;3.45;;;;;;;17.58;66.49;99919.94;4907249;29;20033;-52
2022/07/30 00:47:18;;;;;;;5.68;3.10;;;;;;;17.52;66.38;99915.81;4912001;29;20052;-52
2022/07/30 00:49:44;;;;;;;5.85;3.00;;;;;;;17.50;66.60;99911.56;4906984;29;20092;-53
2022/07/30 00:52:10;;;;;;;5.80;3.28;;;;;;;17.53;67.23;99909.69;4909601;29;20056;-52
2022/07/30 00:54:35;;;;;;;9.98;3.42;;;;;;;17.58;67.38;99912.06;4910870;29;20072;-52
2022/07/30 00:57:01;;;;;;;7.88;3.38;;;;;;;17.48;67.16;99902.97;4909596;29;20024;-52
2022/07/30 00:59:27;;;;;;;5.50;3.05;;;;;;;17.51;67.63;99901.03;4910766;29;20021;-51
2022/07/30 01:01:53;;;;;;;6.65;3.15;;;;;;;17.51;66.96;99908.03;4910799;29;20100;-52
2022/07/30 01:04:19;;;;;;;9.25;3.15;;;;;;;17.52;67.07;99905.34;4925230;29;20424;-52
2022/07/30 01:06:45;;;;;;;4.80;2.50;;;;;;;17.47;67.09;99901.25;4910535;29;20213;-53
2022/07/30 01:09:11;;;;;;;6.28;3.03;;;;;;;17.48;67.19;99902.97;4910934;29;20036;-53
2022/07/30 01:11:38;;;;;;;4.75;2.42;;;;;;;17.39;68.19;99891.97;4910594;29;20284;-55
2022/07/30 01:14:05;;;;;;;4.85;2.63;;;;;;;17.37;68.28;99883.38;4910478;29;20036;-52
2022/07/30 01:16:32;;;;;;;6.78;2.38;;;;;;;17.36;67.14;99897.38;4910279;29;20043;-53
2022/07/30 01:21:51;;;;;;;5.22;2.42;;;;;;;16.96;67.53;99840.75;4910368;29;20328;-52
2022/07/30 01:24:27;;;;;;;6.18;2.17;;;;;;;16.91;67.60;99843.56;4910300;29;20092;-52
2022/07/30 01:26:54;;;;;;;5.43;1.85;;;;;;;17.11;67.60;99878.47;4910457;29;20100;-52
2022/07/30 01:29:23;;;;;;;9.23;2.63;;;;;;;16.96;67.55;99867.78;4910171;29;20039;-53
2022/07/30 01:31:51;;;;;;;5.65;2.05;;;;;;;17.20;67.67;99901.59;4910121;29;20194;-53
2022/07/30 01:34:18;;;;;;;2.65;1.98;;;;;;;17.12;67.45;99890.66;4924595;29;20225;-53
2022/07/30 01:36:45;;;;;;;3.85;1.98;;;;;;;17.12;67.30;99924.66;4910267;29;20050;-52
2022/07/30 01:39:14;;;;;;;5.22;2.05;;;;;;;17.12;67.80;99898.50;4910042;29;20028;-52
2022/07/30 01:41:41;;;;;;;3.53;1.90;;;;;;;17.19;67.76;99897.31;4910121;29;20045;-52
2022/07/30 01:44:10;;;;;;;16.02;2.53;;;;;;;16.83;68.31;99836.06;4910003;29;20059;-52
2022/07/30 01:46:38;;;;;;;6.18;2.00;;;;;;;17.16;67.87;99900.03;4914193;29;20061;-52
2022/07/30 01:49:04;;;;;;;6.55;2.60;;;;;;;17.14;67.74;99899.25;4909998;29;20032;-52
2022/07/30 01:51:32;;;;;;;3.58;1.92;;;;;;;17.16;67.57;99905.25;4909934;29;20103;-53
2022/07/30 01:53:59;;;;;;;4.20;1.80;;;;;;;17.18;67.88;99900.81;4910717;29;20033;-53
2022/07/30 01:56:26;;;;;;;4.28;1.75;;;;;;;17.17;67.55;99909.59;4915251;29;20024;-53
2022/07/30 01:58:57;;;;;;;6.03;1.95;;;;;;;16.83;67.86;99856.13;4909812;29;20388;-52
2022/07/30 02:01:23;;;;;;;5.07;2.17;;;;;;;17.17;68.26;99909.59;4909775;29;20036;-52
2022/07/30 02:03:49;;;;;;;5.45;2.25;;;;;;;17.20;68.56;99914.69;4908472;29;20300;-52
2022/07/30 02:06:25;;;;;;;4.00;2.28;;;;;;;17.06;68.97;99902.25;4899233;29;20036;-53
2022/07/30 02:08:56;;;;;;;6.03;2.20;;;;;;;16.86;68.57;99863.81;4909566;29;20073;-52
2022/07/30 02:14:13;;;;;;;6.30;1.95;;;;;;;17.17;68.81;99914.81;4909701;29;20029;-53
2022/07/30 02:16:43;;;;;;;7.43;2.10;;;;;;;17.18;68.47;99917.38;4909611;29;20028;-53
2022/07/30 02:19:13;;;;;;;5.43;1.80;;;;;;;16.85;68.71;99864.75;4909661;29;20223;-53
2022/07/30 02:21:43;;;;;;;4.55;2.10;;;;;;;16.86;68.67;99864.69;4909327;29;20036;-53
2022/07/30 02:24:14;;;;;;;4.22;1.88;;;;;;;17.16;67.93;99911.38;4893150;29;20044;-53
2022/07/30 02:26:41;;;;;;;7.40;2.20;;;;;;;17.17;68.62;99915.69;4909595;29;20033;-53
2022/07/30 02:29:09;;;;;;;5.57;2.72;;;;;;;17.21;67.92;99914.59;4909063;29;20064;-53
2022/07/30 02:31:37;;;;;;;4.53;2.10;;;;;;;17.22;68.82;99918.09;4909103;29;20068;-53
2022/07/30 02:34:05;;;;;;;9.23;1.98;;;;;;;17.21;68.65;99911.16;4909063;29;20028;-53
2022/07/30 02:36:33;;;;;;;6.43;1.92;;;;;;;17.25;68.65;99920.56;4909146;29;20032;-53
2022/07/30 02:39:01;;;;;;;4.85;2.00;;;;;;;17.27;68.72;99920.50;4907707;29;20044;-53
2022/07/30 02:41:29;;;;;;;7.65;2.10;;;;;;;17.32;68.25;99939.47;4908885;29;20035;-53
2022/07/30 02:43:56;;;;;;;2.45;1.60;;;;;;;17.25;68.62;99928.41;4909036;29;20212;-53
2022/07/30 02:46:23;;;;;;;6.03;1.88;;;;;;;17.02;68.25;99882.34;4913115;29;20126;-53
2022/07/30 02:48:52;;;;;;;1.92;1.55;;;;;;;17.17;67.83;99896.50;4908950;29;20457;-54
2022/07/30 02:51:19;;;;;;;7.88;2.13;;;;;;;17.20;68.08;99902.47;4908898;29;20024;-53
2022/07/30 02:53:47;;;;;;;3.53;1.65;;;;;;;17.14;68.12;99886.19;4908951;29;20025;-53
2022/07/30 02:56:16;;;;;;;5.43;1.92;;;;;;;17.49;67.28;99930.84;4915882;29;20028;-54
2022/07/30 02:58:45;;;;;;;3.45;1.90;;;;;;;17.53;67.76;99935.00;4907810;29;20317;-53
2022/07/30 03:01:14;;;;;;;5.82;2.30;;;;;;;17.18;68.86;99895.59;4908599;29;20043;-53
2022/07/30 03:03:43;;;;;;;3.25;1.90;;;;;;;17.50;68.15;99940.38;4908524;29;20032;-53
2022/07/30 03:06:11;;;;;;;4.28;2.20;;;;;;;17.51;67.77;99940.31;4890340;29;20036;-53
2022/07/30 03:08:37;;;;;;;4.60;2.33;;;;;;;17.49;67.67;99938.69;4904152;29;20516;-53
2022/07/30 03:11:04;;;;;;;5.82;2.67;;;;;;;17.46;68.55;99946.69;4923378;29;20452;-53
2022/07/30 03:13:30;;;;;;;4.13;2.42;;;;;;;17.57;67.31;99933.94;4907758;29;20201;-53
2022/07/30 03:15:57;;;;;;;4.35;2.30;;;;;;;17.36;67.82;99891.28;4908396;29;20061;-53
2022/07/30 03:18:26;;;;;;;4.82;2.00;;;;;;;17.69;67.32;99940.41;4907455;29;20331;-54
2022/07/30 03:20:55;;;;;;;4.68;2.05;;;;;;;17.40;67.05;99895.44;4908411;29;20028;-54
2022/07/30 03:23:22;;;;;;;6.85;2.70;;;;;;;17.77;66.09;99946.97;4908090;29;20028;-53
2022/07/30 03:25:54;;;;;;;7.78;2.58;;;;;;;17.72;67.50;99924.53;4908279;29;20242;-54
2022/07/30 03:28:22;;;;;;;6.75;2.42;;;;;;;17.50;67.85;99888.00;4907038;29;20109;-54
2022/07/30 03:30:48;;;;;;;5.30;2.53;;;;;;;17.81;67.14;99939.78;4907955;29;20039;-54
2022/07/30 03:33:14;;;;;;;4.55;2.55;;;;;;;17.90;66.34;99942.03;4908261;29;20029;-54
2022/07/30 03:35:42;;;;;;;3.90;2.33;;;;;;;17.77;65.68;99931.25;4908084;29;20110;-54
2022/07/30 03:38:12;;;;;;;7.20;2.45;;;;;;;17.85;65.50;99936.13;4907912;29;20036;-54
2022/07/30 03:40:38;;;;;;;9.70;2.95;;;;;;;17.92;65.54;99940.16;4907825;29;20269;-54
2022/07/30 03:43:07;;;;;;;6.32;2.72;;;;;;;17.81;65.80;99915.38;4907827;29;20040;-54
2022/07/30 03:45:33;;;;;;;7.70;3.13;;;;;;;18.06;65.58;99942.13;4906226;29;20095;-54
2022/07/30 03:47:59;;;;;;;8.77;2.95;;;;;;;17.96;65.69;99943.50;4906233;29;20053;-54
2022/07/30 03:50:26;;;;;;;6.55;3.17;;;;;;;18.06;64.58;99939.50;4907722;29;20035;-54
2022/07/30 03:52:52;;;;;;;6.20;3.28;;;;;;;18.17;64.92;99946.00;4907398;29;20029;-54
2022/07/30 03:55:17;;;;;;;5.22;3.13;;;;;;;18.23;64.09;99945.72;4909947;29;20096;-54
2022/07/30 03:57:43;;;;;;;5.00;2.97;;;;;;;18.29;63.78;99950.66;4907764;29;20028;-53
2022/07/30 04:00:14;;;;;;;6.93;2.97;;;;;;;17.98;63.39;99907.56;4907423;29;20036;-59
2022/07/30 04:02:43;;;;;;;6.88;3.40;;;;;;;18.34;63.98;99953.91;4907705;29;20036;-53
2022/07/30 04:05:14;;;;;;;6.85;3.22;;;;;;;18.08;64.17;99900.13;4897275;29;20036;-53
2022/07/30 04:07:39;;;;;;;6.50;3.33;;;;;;;18.38;62.83;99954.59;4895202;29;20217;-54
2022/07/30 04:10:06;;;;;;;8.57;3.60;;;;;;;18.45;62.47;99954.22;4907589;29;20055;-53
2022/07/30 04:12:32;;;;;;;5.32;3.08;;;;;;;18.54;62.43;99947.66;4907487;29;20045;-54
2022/07/30 04:14:58;;;;;;;8.38;3.50;;;;;;;18.64;62.55;99945.44;4906658;29;20407;-53
2022/07/30 04:17:32;;;;;;;5.70;2.92;;;;;;;18.65;62.05;99946.25;4906712;29;20028;-53
2022/07/30 04:20:20;;;;;;;4.50;2.35;;;;;;;18.49;59.05;99925.22;4907413;29;20041;-53
2022/07/30 04:22:48;;;;;;;5.03;2.45;;;;;;;18.70;60.21;99945.09;4907366;29;20055;-54
2022/07/30 04:25:14;;;;;;;5.35;2.10;;;;;;;18.76;60.33;99955.28;4906581;29;20337;-54
2022/07/30 04:27:40;;;;;;;5.90;2.15;;;;;;;18.87;60.12;99962.66;4907069;29;20249;-53
2022/07/30 04:30:06;;;;;;;2.33;1.42;;;;;;;18.94;58.52;99963.16;4907318;29;20077;-53
2022/07/30 04:32:32;;;;;;;1.63;1.52;;;;;;;18.92;59.48;99947.50;4906693;29;20221;-52
2022/07/30 04:34:58;;;;;;;3.83;1.90;;;;;;;18.93;59.83;99971.97;4905993;29;20032;-52
2022/07/30 04:37:26;;;;;;;4.45;1.65;;;;;;;18.98;59.32;99964.69;4906107;29;20346;-53
2022/07/30 04:39:56;;;;;;;3.20;1.60;;;;;;;19.05;58.95;99959.97;4904459;29;20037;-52
2022/07/30 04:42:26;;;;;;;3.90;1.55;;;;;;;19.06;57.64;99959.06;4906237;29;20362;-53
2022/07/30 04:44:52;;;;;;;2.70;1.60;;;;;;;19.08;58.49;99958.06;4906439;29;20032;-53
2022/07/30 04:47:18;;;;;;;4.28;1.17;;;;;;;19.11;58.53;99964.91;4912935;29;20127;-53
2022/07/30 04:49:45;;;;;;;3.75;1.20;;;;;;;18.65;57.56;99894.63;4906692;29;20025;-53
2022/07/30 04:52:11;;;;;;;3.55;1.08;;;;;;;19.23;58.39;99966.91;4906312;29;20033;-53
2022/07/30 04:54:42;;;;;;;2.38;1.20;;;;;;;18.86;57.58;99908.41;4912683;29;20035;-52
2022/07/30 04:57:10;;;;;;;4.85;1.20;;;;;;;18.98;58.22;99922.69;4907630;29;20044;-52
2022/07/30 04:59:36;;;;;;;1.92;1.20;;;;;;;19.35;58.10;99972.44;4906655;29;20037;-53
2022/07/30 05:02:03;;;;;;;1.60;1.05;;;;;;;19.17;56.84;99926.97;4905100;29;20261;-53
2022/07/30 05:04:32;;;;;;;1.15;1.00;;;;;;;19.49;56.03;99965.47;4906338;29;20080;-53
2022/07/30 05:07:00;;;;;;;2.83;1.33;;;;;;;19.66;56.56;99982.13;4906728;29;20201;-53
2022/07/30 05:09:27;;;;;;;2.58;0.90;;;;;;;19.77;55.05;99979.75;4906526;29;20036;-53
2022/07/30 05:11:54;;;;;;;3.90;1.05;;;;;;;19.88;55.01;99973.97;4906591;29;20032;-53
2022/07/30 05:14:21;;;;;;;2.15;1.23;;;;;;;20.18;54.25;99981.06;4906126;29;20339;-54
2022/07/30 05:16:46;;;;;;;2.53;1.00;;;;;;;20.39;54.40;99976.34;4905779;29;20033;-53
2022/07/30 05:19:12;;;;;;;1.23;0.85;;;;;;;20.43;54.24;99983.13;4906319;29;20198;-53
2022/07/30 05:21:38;;;;;;;1.98;1.40;;;;;;;20.75;53.79;99979.56;4906893;29;20052;-53
2022/07/30 05:24:04;;;;;;;1.45;1.33;;;;;;;21.06;52.46;99970.69;4906684;29;20333;-52
2022/07/30 05:26:30;;;;;;;1.85;1.00;;;;;;;21.20;52.43;99972.47;4906737;29;20340;-53
2022/07/30 05:28:56;;;;;;;1.38;1.00;;;;;;;21.26;51.81;99971.25;4906803;29;20064;-53
2022/07/30 05:31:21;;;;;;;2.50;1.42;;;;;;;21.17;52.18;99968.25;4906986;29;20024;-54
2022/07/30 05:33:47;;;;;;;2.33;1.20;;;;;;;21.05;51.08;99976.91;4906670;29;20044;-53
2022/07/30 05:36:12;;;;;;;1.48;0.88;;;;;;;21.02;51.99;99975.31;4906680;29;20036;-53
2022/07/30 05:38:38;;;;;;;2.42;1.10;;;;;;;20.96;52.39;99974.81;4909840;29;20028;-53
2022/07/30 05:41:03;;;;;;;4.50;1.50;;;;;;;21.07;52.80;99975.00;4910315;29;20355;-53
2022/07/30 05:43:29;;;;;;;3.42;1.27;;;;;;;21.08;52.26;99968.81;4910115;29;20035;-53
2022/07/30 05:45:55;;;;;;;3.33;1.30;;;;;;;21.25;50.77;99980.09;4916537;29;20099;-53
2022/07/30 05:48:20;;;;;;;1.67;1.10;;;;;;;21.24;52.28;99979.25;4909697;29;20035;-53
2022/07/30 05:50:46;;;;;;;4.45;1.52;;;;;;;21.17;51.12;99984.03;4909797;29;20033;-53
2022/07/30 05:53:11;;;;;;;4.70;1.50;;;;;;;21.28;51.37;99990.47;4909739;29;20032;-53
2022/07/30 05:55:37;;;;;;;4.28;1.90;;;;;;;21.29;50.99;99982.47;4917759;29;20036;-53
2022/07/30 05:58:03;;;;;;;2.67;1.67;;;;;;;21.27;51.29;99983.50;4909650;29;20221;-53
2022/07/30 06:00:28;;;;;;;2.75;1.52;;;;;;;21.24;51.74;99988.97;4910082;29;20076;-53
2022/07/30 06:02:54;;;;;;;5.03;1.85;;;;;;;21.32;50.16;99982.28;4909507;29;20149;-53
2022/07/30 06:05:20;;;;;;;3.17;1.88;;;;;;;21.37;50.42;99990.72;4898986;29;20048;-53
2022/07/30 06:07:46;;;;;;;4.00;2.10;;;;;;;21.16;50.97;99979.75;4897465;29;20174;-54
2022/07/30 06:10:12;;;;;;;4.55;1.90;;;;;;;21.04;51.52;99962.03;4909699;29;20032;-54
2022/07/30 06:12:37;;;;;;;6.50;2.78;;;;;;;20.96;50.50;99980.06;4909538;29;20040;-53
2022/07/30 06:15:04;;;;;;;5.13;2.42;;;;;;;21.04;50.79;99978.69;4909452;29;20060;-53
2022/07/30 06:17:31;;;;;;;5.65;2.65;;;;;;;20.96;51.73;99982.72;4909302;29;20059;-53
2022/07/30 06:19:59;;;;;;;6.82;3.75;;;;;;;20.56;51.23;99932.41;4909037;29;20152;-53
2022/07/30 06:22:25;;;;;;;7.43;3.95;;;;;;;21.04;51.19;99978.69;4907928;29;20032;-53
2022/07/30 06:24:50;;;;;;;9.38;4.70;;;;;;;21.14;51.02;99968.44;4909512;29;20029;-54
2022/07/30 06:27:16;;;;;;;7.82;3.60;;;;;;;21.19;51.50;99979.53;4909243;29;20039;-53
2022/07/30 06:29:42;;;;;;;12.07;3.90;;;;;;;21.30;51.48;99970.13;4908572;29;20072;-58
2022/07/30 06:32:08;;;;;;;6.78;3.70;;;;;;;21.20;52.16;99973.31;4908919;29;20367;-52
2022/07/30 06:34:34;;;;;;;5.70;3.72;;;;;;;21.24;51.09;99962.63;4908851;29;20047;-53
2022/07/30 06:36:59;;;;;;;5.82;3.60;;;;;;;21.26;51.69;99982.63;4908889;29;20128;-53
2022/07/30 06:39:25;;;;;;;7.88;3.30;;;;;;;21.41;51.29;99982.66;4908809;29;20095;-53
2022/07/30 06:41:51;;;;;;;5.20;3.15;;;;;;;21.42;51.01;99984.31;4908771;29;20332;-53
2022/07/30 06:44:17;;;;;;;5.60;3.28;;;;;;;21.35;50.20;99983.88;4908525;29;20075;-53
2022/07/30 06:46:42;;;;;;;5.35;3.20;;;;;;;21.38;50.66;99978.41;4908632;29;20285;-53
2022/07/30 06:49:08;;;;;;;5.07;3.33;;;;;;;21.46;50.48;99984.06;4907867;29;20213;-53
2022/07/30 06:51:33;;;;;;;3.45;2.35;;;;;;;21.62;49.54;99975.22;4907764;29;20063;-53
2022/07/30 06:53:59;;;;;;;6.68;2.47;;;;;;;21.60;49.16;99980.56;4908787;29;20317;-53
2022/07/30 06:56:24;;;;;;;7.53;2.00;;;;;;;21.63;49.63;99990.09;4908650;29;20060;-53
2022/07/30 06:58:50;;;;;;;2.53;1.60;;;;;;;21.63;48.29;99983.00;4908465;29;20033;-53
2022/07/30 07:01:16;;;;;;;3.50;1.25;;;;;;;21.73;49.07;99980.66;4908646;29;20048;-52
2022/07/30 07:03:41;;;;;;;2.05;1.30;;;;;;;21.64;49.03;99975.97;4908109;29;20225;-54
2022/07/30 07:06:07;;;;;;;2.60;1.20;;;;;;;21.67;49.51;99986.31;4908614;29;20028;-54
2022/07/30 07:08:35;;;;;;;0.90;0.90;;;;;;;21.58;47.18;99942.94;4908463;29;20248;-55
2022/07/30 07:11:01;;;;;;;4.20;1.27;;;;;;;21.87;47.93;99979.78;4907169;29;20024;-53
2022/07/30 07:13:27;;;;;;;2.17;1.00;;;;;;;21.78;46.92;99990.94;4908100;29;20221;-53
2022/07/30 07:15:52;;;;;;;2.60;1.10;;;;;;;21.98;47.47;99987.03;4908273;29;20035;-53
2022/07/30 07:18:18;;;;;;;2.80;1.27;;;;;;;22.03;48.22;99983.13;4908179;29;20087;-52
2022/07/30 07:20:45;;;;;;;2.60;1.23;;;;;;;22.05;47.08;99985.69;4908117;29;20321;-53
2022/07/30 07:23:11;;;;;;;4.50;1.15;;;;;;;22.11;48.35;99995.81;4909631;29;20040;-53
2022/07/30 07:25:37;;;;;;;3.25;1.17;;;;;;;22.00;46.62;99990.38;4914122;29;20024;-53
2022/07/30 07:28:03;;;;;;;4.72;1.38;;;;;;;21.87;47.65;99987.69;4918229;29;20091;-53
2022/07/30 07:30:29;;;;;;;2.75;1.58;;;;;;;21.78;47.66;99997.03;4915792;29;20024;-54
2022/07/30 07:32:55;;;;;;;3.22;1.13;;;;;;;21.61;47.38;99992.81;4915477;29;20187;-53
2022/07/30 07:35:20;;;;;;;3.72;1.48;;;;;;;21.67;47.35;99981.88;4917982;29;20043;-53
2022/07/30 07:37:46;;;;;;;4.70;1.45;;;;;;;21.65;46.51;99985.59;4915953;29;20059;-53
2022/07/30 07:40:12;;;;;;;8.85;1.52;;;;;;;21.80;48.27;99987.22;4912647;29;20039;-53
2022/07/30 07:42:37;;;;;;;3.42;1.50;;;;;;;21.91;48.44;99980.44;4908040;29;20091;-53
2022/07/30 07:45:03;;;;;;;5.50;1.50;;;;;;;22.00;48.08;99983.31;4907990;29;20079;-54
2022/07/30 07:47:29;;;;;;;2.42;1.20;;;;;;;22.09;47.17;99981.03;4913705;29;20051;-55
2022/07/30 07:49:55;;;;;;;7.40;1.50;;;;;;;22.14;47.85;99968.41;4917934;29;20036;-55
2022/07/30 07:52:21;;;;;;;2.55;1.25;;;;;;;22.32;48.30;99968.97;4916923;29;20178;-54
2022/07/30 07:54:46;;;;;;;2.88;1.27;;;;;;;22.27;44.59;99963.16;4917405;29;20028;-53
2022/07/30 07:57:12;;;;;;;3.92;1.50;;;;;;;22.45;46.23;99980.44;4910282;29;20107;-53
2022/07/30 07:59:38;;;;;;;1.63;1.38;;;;;;;22.61;45.74;99972.34;4905458;29;20355;-53
2022/07/30 08:02:03;;;;;;;1.25;1.13;;;;;;;22.65;45.66;99973.00;4909876;29;20213;-53
2022/07/30 08:04:29;;;;;;;3.78;1.80;;;;;;;22.60;44.62;99970.66;4908843;29;20145;-54
2022/07/30 08:06:55;;;;;;;3.60;2.08;;;;;;;22.68;45.06;99972.78;4906939;29;20088;-53
2022/07/30 08:09:20;;;;;;;2.97;1.52;;;;;;;22.68;44.42;99965.72;4906349;29;20028;-53
2022/07/30 08:11:46;;;;;;;2.88;1.20;;;;;;;22.50;44.00;99962.53;4907048;29;20044;-53
2022/07/30 08:14:13;;;;;;;2.65;1.65;;;;;;;22.69;44.88;99953.38;4905965;29;20032;-53
2022/07/30 08:16:38;;;;;;;3.55;1.52;;;;;;;22.77;45.12;99958.94;4921702;29;20047;-53
2022/07/30 08:19:04;;;;;;;5.70;1.52;;;;;;;22.71;44.84;99960.22;4907058;29;20028;-52
2022/07/30 08:21:30;;;;;;;2.67;1.13;;;;;;;22.91;44.35;99958.00;4906213;29;20045;-53
2022/07/30 08:23:55;;;;;;;2.63;1.30;;;;;;;22.88;43.45;99968.78;4908360;29;20075;-52
2022/07/30 08:26:21;;;;;;;3.85;1.13;;;;;;;22.82;44.56;99956.84;4900175;29;20024;-54
2022/07/30 08:28:46;;;;;;;4.35;1.15;;;;;;;;;;4906741;29;20201;-53
2022/07/30 08:31:12;;;;;;;2.55;1.27;;;;;;;23.07;45.15;99965.72;4907056;29;20029;-53
2022/07/30 08:33:37;;;;;;;3.75;1.20;;;;;;;22.88;43.67;99951.13;4906446;29;20032;-52
2022/07/30 08:36:03;;;;;;;2.40;1.27;;;;;;;22.96;44.14;99950.63;4906496;29;20047;-52
2022/07/30 08:38:29;;;;;;;3.53;1.30;;;;;;;23.10;43.01;99957.56;4910758;29;20114;-53
2022/07/30 08:40:55;;;;;;;1.67;0.95;;;;;;;22.94;41.37;99941.94;4918044;29;20044;-53
2022/07/30 08:43:24;;;;;;;1.00;0.82;;;;;;;22.86;40.60;99934.56;4913967;29;20109;-53
2022/07/30 08:45:50;;;;;;;5.88;1.30;;;;;;;;;;4913249;29;20032;-53
2022/07/30 08:48:19;;;;;;;6.15;1.70;;;;;;;22.75;43.88;99910.69;4908941;29;20070;-53
2022/07/30 08:50:45;;;;;;;10.48;1.80;;;;;;;23.17;42.04;99948.31;4906847;29;20109;-52
2022/07/30 08:53:11;;;;;;;3.08;1.30;;;;;;;23.10;41.06;99941.72;4905913;29;20040;-52
2022/07/30 08:55:37;;;;;;;2.97;1.48;;;;;;;23.24;42.27;99943.44;4916520;29;20029;-52
2022/07/30 08:58:04;;;;;;;3.22;1.55;;;;;;;23.00;40.56;99887.84;4907057;29;20194;-53
2022/07/30 09:00:30;;;;;;;1.20;1.10;;;;;;;23.38;41.33;99947.75;4906234;29;20116;-53
2022/07/30 09:02:56;;;;;;;1.50;0.95;;;;;;;23.36;40.57;99937.28;4906525;29;20033;-52
2022/07/30 09:05:22;;;;;;;3.58;1.15;;;;;;;23.57;41.30;99934.94;4906724;29;20029;-52
2022/07/30 09:07:48;;;;;;;1.15;0.98;;;;;;;23.55;41.28;99931.53;4906813;29;20206;-52
2022/07/30 09:10:16;;;;;;;2.10;1.17;;;;;;;23.74;41.82;99935.50;4906403;29;20036;-53
2022/07/30 09:12:45;;;;;;;5.47;1.10;;;;;;;23.66;41.43;99935.19;4908567;29;20339;-52
2022/07/30 09:15:10;;;;;;;5.85;1.80;;;;;;;23.60;40.80;99931.19;4924180;29;20044;-53
2022/07/30 09:17:48;;;;;;;4.53;1.35;;;;;;;23.50;41.29;99936.31;4910367;29;20035;-53
2022/07/30 09:20:14;;;;;;;3.55;1.50;;;;;;;23.17;41.79;99926.31;4909596;29;20091;-53
2022/07/30 09:22:47;;;;;;;1.73;1.33;;;;;;;22.99;42.12;99931.91;4910103;29;20064;-53
2022/07/30 09:25:12;;;;;;;1.88;1.33;;;;;;;23.09;42.07;99945.34;4908808;29;20036;-53
2022/07/30 09:27:49;;;;;;;5.97;1.70;;;;;;;22.95;42.61;99900.56;4910405;29;20032;-53
2022/07/30 09:30:15;;;;;;;5.50;1.40;;;;;;;23.20;44.94;99944.59;4908723;29;20033;-53
2022/07/30 09:32:48;;;;;;;4.65;1.83;;;;;;;23.33;44.90;99936.66;4912456;29;20119;-52
2022/07/30 09:35:14;;;;;;;3.40;1.45;;;;;;;23.25;44.24;99934.56;4909896;29;20050;-52
2022/07/30 09:37:40;;;;;;;3.40;1.42;;;;;;;23.30;41.49;99921.00;4909806;29;20036;-53
2022/07/30 09:40:16;;;;;;;3.95;1.52;;;;;;;23.20;42.12;99926.97;4907653;29;20190;-53
2022/07/30 09:42:43;;;;;;;4.57;1.20;;;;;;;23.25;42.73;99935.41;4895282;29;20036;-53
2022/07/30 09:45:14;;;;;;;2.47;1.20;;;;;;;23.25;40.73;99926.63;4913347;29;20031;-53
2022/07/30 09:47:41;;;;;;;1.10;1.00;;;;;;;23.32;39.91;99935.00;4919037;29;20107;-53
2022/07/30 09:50:15;;;;;;;4.20;1.27;;;;;;;23.15;42.09;99896.53;4920283;29;20459;-53
2022/07/30 09:52:43;;;;;;;3.70;1.05;;;;;;;23.15;40.80;99901.81;4910492;29;20143;-52
2022/07/30 09:55:10;;;;;;;3.35;1.25;;;;;;;23.29;39.93;99940.47;4919642;29;20020;-53
2022/07/30 09:57:55;;;;;;;4.05;1.23;;;;;;;23.25;40.50;99906.31;4914579;29;20034;-52
2022/07/30 10:00:23;;;;;;;2.25;1.13;;;;;;;23.20;39.17;99897.91;4917872;29;20335;-52
2022/07/30 10:02:50;;;;;;;2.90;1.30;;;;;;;23.26;38.76;99942.38;4917419;29;20455;-52
2022/07/30 10:05:19;;;;;;;1.08;0.90;;;;;;;22.75;38.57;99940.56;4917672;29;20068;-53
2022/07/30 10:07:59;;;;;;;1.88;1.17;;;;;;;22.73;38.75;99941.63;4912069;29;20329;-53
2022/07/30 10:10:28;;;;;;;2.38;0.88;;;;;;;22.46;39.44;99884.50;4909520;29;20067;-53
2022/07/30 10:13:00;;;;;;;6.32;1.77;;;;;;;23.00;40.98;99943.31;4909394;29;20249;-53
2022/07/30 10:15:32;;;;;;;4.88;1.30;;;;;;;22.78;41.19;99891.97;4909372;29;20096;-53
2022/07/30 10:17:59;;;;;;;2.47;1.33;;;;;;;23.24;40.34;99931.09;4908816;29;20111;-53
2022/07/30 10:20:26;;;;;;;2.05;1.10;;;;;;;23.34;40.84;99938.34;4909816;29;20036;-53
2022/07/30 10:22:52;;;;;;;1.25;1.10;;;;;;;23.35;39.77;99935.59;4907619;29;20059;-53
2022/07/30 10:25:22;;;;;;;3.15;1.20;;;;;;;23.40;40.09;99916.75;4907399;29;20398;-53
2022/07/30 10:27:48;;;;;;;3.63;1.00;;;;;;;23.51;40.29;99924.75;4908717;29;20064;-53
2022/07/30 10:30:14;;;;;;;4.10;1.10;;;;;;;23.49;40.62;99925.84;4908222;29;20025;-54
2022/07/30 10:32:40;;;;;;;6.00;1.10;;;;;;;23.58;38.73;99920.72;4909259;29;20100;-54
2022/07/30 10:35:07;;;;;;;3.65;1.10;;;;;;;23.23;39.38;99916.19;4908485;29;20064;-54
2022/07/30 10:37:35;;;;;;;3.80;1.20;;;;;;;23.45;39.62;99925.22;4908399;29;20084;-54
2022/07/30 10:40:09;;;;;;;6.05;1.60;;;;;;;23.39;38.49;99923.84;4908533;29;20044;-53
2022/07/30 10:43:01;;;;;;;1.42;1.20;;;;;;;23.65;39.32;99928.25;4908641;29;20539;-54
2022/07/30 10:45:29;;;;;;;2.20;1.00;;;;;;;23.68;38.65;99925.38;4909424;29;20032;-54
2022/07/30 10:47:56;;;;;;;2.25;1.27;;;;;;;23.36;37.81;99920.56;4915940;29;20058;-54
2022/07/30 10:50:27;;;;;;;4.80;1.20;;;;;;;23.10;38.07;99886.25;4912792;29;20267;-53
2022/07/30 10:53:00;;;;;;;1.35;1.05;;;;;;;23.38;39.40;99923.97;4908485;29;20067;-52
2022/07/30 10:55:28;;;;;;;2.90;1.88;;;;;;;22.92;38.36;99910.34;4918909;29;20099;-52
2022/07/30 10:58:04;;;;;;;3.20;1.35;;;;;;;23.29;39.50;99927.25;4906374;29;20095;-52
2022/07/30 11:00:53;;;;;;;1.90;1.20;;;;;;;23.13;40.43;99872.88;4908400;29;20063;-53
2022/07/30 11:03:22;;;;;;;3.28;1.58;;;;;;;23.26;39.82;99867.56;4917418;29;20112;-53
2022/07/30 11:05:50;;;;;;;3.40;1.48;;;;;;;23.35;39.30;99882.72;4902667;29;20032;-53
2022/07/30 11:08:39;;;;;;;3.10;1.40;;;;;;;23.63;39.76;99916.91;4897729;29;20024;-54
2022/07/30 11:11:27;;;;;;;2.80;1.00;;;;;;;23.55;37.48;99920.94;4908042;29;20036;-53
2022/07/30 11:13:56;;;;;;;1.88;1.30;;;;;;;23.69;38.32;99927.06;4907096;29;20040;-53
2022/07/30 11:16:43;;;;;;;5.40;1.60;;;;;;;23.57;38.43;99911.13;4907250;29;20036;-53
2022/07/30 11:19:16;;;;;;;1.80;1.20;;;;;;;23.70;38.45;99921.66;4901057;29;20032;-53
2022/07/30 11:21:44;;;;;;;1.98;1.10;;;;;;;23.74;38.30;99924.91;4906557;29;20095;-53
2022/07/30 11:24:41;;;;;;;4.30;1.40;;;;;;;23.86;37.24;99908.16;4904422;29;20143;-52
2022/07/30 11:27:07;;;;;;;1.95;1.08;;;;;;;23.88;38.35;99916.00;4889457;29;20031;-52
2022/07/30 11:29:38;;;;;;;1.60;1.20;;;;;;;23.81;38.18;99915.56;4899462;29;20020;-53
2022/07/30 11:32:32;;;;;;;1.50;1.20;;;;;;;23.65;37.39;99910.56;4908373;29;20068;-52
2022/07/30 11:35:17;;;;;;;2.45;1.40;;;;;;;23.46;37.69;99908.41;4907666;29;20533;-52
2022/07/30 11:38:08;;;;;;;2.45;1.40;;;;;;;23.60;39.58;99907.38;4907971;29;20064;-53
2022/07/30 11:40:36;;;;;;;3.70;1.50;;;;;;;23.76;39.61;99918.56;4907532;29;20020;-52
2022/07/30 11:43:23;;;;;;;1.58;1.40;;;;;;;23.34;38.68;99859.88;4908016;29;20104;-53